createdAt,value
2023-04-15T00:00:05.131Z,76.48
2023-04-15T00:02:41.084Z,75.71
2023-04-15T00:05:10.034Z,76.02
2023-04-15T00:07:40.442Z,75.83
2023-04-15T00:10:09.636Z,76.10
2023-04-15T00:12:37.738Z,76.32
2023-04-15T00:15:06.721Z,76.18
2023-04-15T00:17:34.926Z,76.73
2023-04-15T00:20:06.413Z,77.34
2023-04-15T00:22:34.414Z,77.28
2023-04-15T00:25:04.272Z,76.96
2023-04-15T00:27:32.342Z,77.14
2023-04-15T00:30:00.483Z,77.34
2023-04-15T00:32:29.248Z,76.80
2023-04-15T00:34:57.614Z,77.84
2023-04-15T00:37:26.204Z,77.81
2023-04-15T00:39:54.262Z,77.83
2023-04-15T00:42:24.084Z,77.40
2023-04-15T00:44:52.594Z,78.14
2023-04-15T00:47:22.651Z,78.63
2023-04-15T00:49:51.094Z,77.86
2023-04-15T00:52:19.769Z,78.44
2023-04-15T00:54:47.742Z,77.66
2023-04-15T00:57:16.045Z,78.20
2023-04-15T00:59:46.693Z,78.44
2023-04-15T01:02:14.794Z,78.60
2023-04-15T01:04:43.734Z,78.52
2023-04-15T01:07:12.112Z,78.00
2023-04-15T01:09:40.525Z,78.66
2023-04-15T01:12:11.453Z,78.15
2023-04-15T01:14:39.735Z,78.92
2023-04-15T01:17:09.107Z,78.87
2023-04-15T01:19:38.013Z,78.09
2023-04-15T01:22:06.038Z,79.29
2023-04-15T01:24:35.210Z,79.03
2023-04-15T01:27:05.655Z,79.30
2023-04-15T01:29:35.733Z,79.08
2023-04-15T01:32:04.220Z,79.58
2023-04-15T01:34:34.281Z,79.43
2023-04-15T01:37:03.454Z,78.98
2023-04-15T01:39:31.339Z,79.12
2023-04-15T01:41:59.301Z,80.00
2023-04-15T01:44:28.710Z,79.98
2023-04-15T01:46:56.626Z,80.15
2023-04-15T01:49:24.969Z,80.16
2023-04-15T01:51:55.188Z,80.03
2023-04-15T01:54:23.260Z,80.62
2023-04-15T01:56:52.780Z,80.48
2023-04-15T01:59:20.950Z,80.70
2023-04-15T02:01:50.311Z,80.56
2023-04-15T02:04:18.180Z,80.85
2023-04-15T02:06:46.090Z,81.29
2023-04-15T02:09:14.269Z,81.51
2023-04-15T02:11:42.169Z,81.09
2023-04-15T02:14:10.162Z,81.01
2023-04-15T02:16:38.024Z,81.01
2023-04-15T02:19:07.992Z,80.51
2023-04-15T02:21:38.760Z,80.28
2023-04-15T02:24:07.125Z,79.95
2023-04-15T02:26:34.967Z,80.62
2023-04-15T02:29:03.024Z,80.17
2023-04-15T02:31:34.057Z,79.85
2023-04-15T02:34:04.315Z,80.08
2023-04-15T02:36:34.596Z,80.22
2023-04-15T02:39:02.958Z,80.60
2023-04-15T02:41:31.364Z,80.51
2023-04-15T02:44:00.188Z,80.59
2023-04-15T02:46:29.479Z,81.21
2023-04-15T02:48:59.829Z,80.13
2023-04-15T02:51:33.079Z,80.25
2023-04-15T02:54:01.566Z,80.01
2023-04-15T02:56:30.257Z,80.35
2023-04-15T02:58:58.722Z,80.76
2023-04-15T03:01:27.241Z,81.15
2023-04-15T03:03:55.269Z,80.84
2023-04-15T03:06:24.713Z,81.37
2023-04-15T03:08:53.999Z,80.79
2023-04-15T03:11:22.773Z,80.70
2023-04-15T03:13:50.705Z,81.15
2023-04-15T03:16:28.200Z,80.94
2023-04-15T03:18:56.262Z,82.10
2023-04-15T03:21:24.825Z,81.87
2023-04-15T03:23:54.250Z,81.18
2023-04-15T03:26:27.216Z,81.49
2023-04-15T03:28:55.844Z,81.58
2023-04-15T03:31:23.765Z,81.24
2023-04-15T03:33:51.681Z,81.38
2023-04-15T03:36:19.645Z,81.10
2023-04-15T03:38:49.413Z,81.34
2023-04-15T03:41:18.850Z,81.08
2023-04-15T03:43:46.703Z,81.60
2023-04-15T03:46:14.590Z,81.85
2023-04-15T03:48:42.370Z,81.65
2023-04-15T03:51:10.227Z,82.14
2023-04-15T03:53:38.119Z,81.53
2023-04-15T03:56:06.642Z,81.77
2023-04-15T03:58:35.918Z,82.67
2023-04-15T04:01:03.863Z,82.70
2023-04-15T04:03:31.916Z,81.68
2023-04-15T04:06:01.091Z,82.92
2023-04-15T04:08:28.858Z,82.25
2023-04-15T04:10:56.946Z,82.42
2023-04-15T04:13:24.997Z,82.00
2023-04-15T04:15:54.673Z,81.77
2023-04-15T04:18:22.775Z,81.29
2023-04-15T04:20:50.811Z,81.87
2023-04-15T04:23:19.525Z,81.00
2023-04-15T04:25:47.727Z,81.98
2023-04-15T04:28:15.590Z,81.49
2023-04-15T04:30:43.805Z,81.55
2023-04-15T04:33:12.999Z,81.83
2023-04-15T04:35:40.857Z,82.25
2023-04-15T04:38:08.700Z,81.42
2023-04-15T04:40:36.821Z,81.91
2023-04-15T04:43:04.745Z,82.47
2023-04-15T04:45:32.557Z,82.47
2023-04-15T04:48:00.598Z,82.27
2023-04-15T04:50:29.975Z,82.87
2023-04-15T04:52:57.733Z,82.98
2023-04-15T04:55:25.762Z,82.56
2023-04-15T04:57:53.630Z,81.83
2023-04-15T05:00:21.568Z,82.60
2023-04-15T05:02:49.712Z,81.45
2023-04-15T05:05:17.616Z,81.45
2023-04-15T05:07:47.336Z,82.14
2023-04-15T05:10:17.540Z,81.66
2023-04-15T05:12:45.409Z,82.11
2023-04-15T05:15:13.260Z,82.49
2023-04-15T05:17:41.144Z,82.10
2023-04-15T05:20:09.896Z,81.94
2023-04-15T05:22:38.204Z,82.47
2023-04-15T05:25:09.065Z,82.18
2023-04-15T05:27:37.090Z,81.71
2023-04-15T05:30:05.549Z,82.30
2023-04-15T05:32:33.395Z,82.48
2023-04-15T05:35:01.595Z,81.92
2023-04-15T05:37:29.461Z,81.66
2023-04-15T05:39:57.844Z,82.09
2023-04-15T05:42:27.100Z,81.63
2023-04-15T05:44:55.594Z,82.62
2023-04-15T05:47:24.291Z,81.72
2023-04-15T05:49:52.108Z,81.90
2023-04-15T05:52:20.008Z,82.08
2023-04-15T05:54:47.981Z,81.38
2023-04-15T05:57:15.849Z,82.01
2023-04-15T05:59:45.082Z,81.38
2023-04-15T06:02:13.475Z,81.11
2023-04-15T06:04:41.522Z,80.21
2023-04-15T06:07:09.535Z,80.69
2023-04-15T06:09:37.402Z,80.61
2023-04-15T06:12:06.840Z,80.25
2023-04-15T06:14:34.720Z,79.75
2023-04-15T06:17:04.145Z,79.24
2023-04-15T06:19:32.132Z,79.76
2023-04-15T06:22:00.472Z,78.76
2023-04-15T06:24:28.409Z,79.37
2023-04-15T06:26:56.287Z,79.23
2023-04-15T06:29:24.146Z,79.62
2023-04-15T06:31:52.348Z,80.18
2023-04-15T06:34:21.668Z,78.66
2023-04-15T06:36:49.597Z,78.90
2023-04-15T06:39:17.524Z,78.97
2023-04-15T06:41:45.390Z,78.04
2023-04-15T06:44:13.689Z,77.16
2023-04-15T06:46:41.537Z,76.91
2023-04-15T06:49:09.390Z,76.05
2023-04-15T06:51:38.633Z,76.75
2023-04-15T06:54:06.518Z,76.47
2023-04-15T06:56:34.587Z,75.97
2023-04-15T06:59:03.661Z,75.45
2023-04-15T07:01:31.741Z,75.54
2023-04-15T07:03:59.743Z,74.89
2023-04-15T07:06:27.743Z,74.94
2023-04-15T07:08:57.374Z,74.73
2023-04-15T07:11:27.168Z,74.48
2023-04-15T07:13:55.723Z,74.04
2023-04-15T07:16:24.239Z,73.98
2023-04-15T07:18:52.869Z,72.37
2023-04-15T07:21:21.413Z,72.42
2023-04-15T07:23:50.048Z,73.38
2023-04-15T07:26:20.139Z,72.76
2023-04-15T07:28:48.900Z,71.85
2023-04-15T07:31:17.729Z,71.79
2023-04-15T07:33:46.326Z,70.83
2023-04-15T07:36:15.562Z,70.07
2023-04-15T07:38:44.089Z,69.91
2023-04-15T07:41:13.497Z,69.81
2023-04-15T07:43:43.241Z,69.02
2023-04-15T07:46:11.832Z,68.51
2023-04-15T07:48:40.085Z,69.12
2023-04-15T07:51:08.665Z,69.19
2023-04-15T07:53:37.339Z,68.79
2023-04-15T07:56:06.300Z,68.30
2023-04-15T07:58:34.320Z,67.75
2023-04-15T08:01:07.032Z,68.89
2023-04-15T08:03:35.742Z,68.00
2023-04-15T08:06:04.364Z,67.88
2023-04-15T08:08:32.853Z,67.71
2023-04-15T08:11:00.819Z,67.84
2023-04-15T08:13:28.738Z,68.25
2023-04-15T08:16:18.501Z,66.25
2023-04-15T08:18:46.482Z,64.14
2023-04-15T08:21:14.888Z,62.87
2023-04-15T08:23:43.903Z,62.85
2023-04-15T08:26:12.055Z,63.06
2023-04-15T08:28:41.551Z,59.76
2023-04-15T08:31:09.634Z,60.69
2023-04-15T08:33:38.980Z,59.25
2023-04-15T08:36:07.564Z,58.40
2023-04-15T08:38:35.596Z,57.36
2023-04-15T08:41:08.466Z,56.01
2023-04-15T08:43:41.572Z,57.08
2023-04-15T08:46:11.928Z,56.06
2023-04-15T08:48:41.489Z,56.04
2023-04-15T08:51:09.901Z,54.88
2023-04-15T08:53:38.688Z,54.40
2023-04-15T08:56:08.625Z,53.50
2023-04-15T08:58:37.168Z,52.33
2023-04-15T09:01:05.129Z,52.27
2023-04-15T09:03:34.444Z,51.57
2023-04-15T09:06:05.795Z,51.31
2023-04-15T09:08:34.521Z,51.68
2023-04-15T09:11:02.731Z,51.55
2023-04-15T09:13:30.965Z,51.50
2023-04-15T09:15:59.392Z,51.91
2023-04-15T09:18:31.475Z,50.67
2023-04-15T09:21:08.946Z,51.37
2023-04-15T09:23:37.655Z,49.06
2023-04-15T09:26:07.137Z,48.66
2023-04-15T09:28:43.166Z,48.40
2023-04-15T09:31:12.025Z,45.58
2023-04-15T09:33:57.263Z,42.89
2023-04-15T09:36:29.676Z,44.28
2023-04-15T09:38:58.310Z,46.56
2023-04-15T09:41:26.542Z,48.64
2023-04-15T09:43:54.621Z,49.11
2023-04-15T09:46:41.381Z,48.89
2023-04-15T09:49:10.316Z,47.88
2023-04-15T09:51:40.151Z,47.42
2023-04-15T09:54:09.340Z,47.53
2023-04-15T09:56:38.798Z,46.96
2023-04-15T09:59:07.013Z,45.39
2023-04-15T10:01:35.185Z,47.43
2023-04-15T10:04:05.443Z,46.58
2023-04-15T10:06:33.761Z,43.02
2023-04-15T10:09:03.357Z,44.49
2023-04-15T10:11:31.951Z,44.64
2023-04-15T10:14:00.320Z,43.61
2023-04-15T10:16:29.571Z,43.64
2023-04-15T10:18:58.526Z,44.62
2023-04-15T10:21:26.468Z,43.79
2023-04-15T10:23:54.947Z,44.20
2023-04-15T10:26:25.605Z,43.22
2023-04-15T10:28:54.844Z,43.60
2023-04-15T10:31:24.433Z,43.25
2023-04-15T10:33:53.814Z,43.25
2023-04-15T10:36:22.340Z,43.05
2023-04-15T10:38:50.191Z,43.26
2023-04-15T10:41:21.426Z,45.01
2023-04-15T10:43:53.380Z,43.90
2023-04-15T10:46:23.934Z,45.08
2023-04-15T10:48:52.822Z,44.55
2023-04-15T10:51:32.739Z,46.32
2023-04-15T10:54:01.191Z,48.31
2023-04-15T10:56:32.231Z,47.08
2023-04-15T10:59:02.582Z,46.51
2023-04-15T11:01:53.466Z,46.02
2023-04-15T11:04:53.461Z,44.84
2023-04-15T11:07:35.907Z,44.87
2023-04-15T11:10:04.803Z,45.35
2023-04-15T11:12:36.747Z,45.76
2023-04-15T11:15:28.868Z,46.51
2023-04-15T11:17:56.866Z,46.04
2023-04-15T11:20:25.261Z,46.42
2023-04-15T11:23:14.729Z,47.27
2023-04-15T11:25:43.167Z,44.82
2023-04-15T11:28:12.763Z,44.83
2023-04-15T11:30:43.440Z,43.87
2023-04-15T11:33:13.966Z,45.46
2023-04-15T11:35:43.045Z,43.91
2023-04-15T11:38:12.960Z,43.12
2023-04-15T11:40:42.109Z,43.96
2023-04-15T11:43:12.508Z,46.72
2023-04-15T11:45:51.446Z,46.81
2023-04-15T11:48:21.220Z,45.66
2023-04-15T11:50:55.008Z,45.89
2023-04-15T11:53:23.461Z,44.91
2023-04-15T11:55:53.419Z,45.06
2023-04-15T11:58:23.462Z,44.96
2023-04-15T12:00:54.086Z,43.33
2023-04-15T12:03:27.444Z,44.69
2023-04-15T12:06:10.461Z,43.75
2023-04-15T12:09:09.294Z,44.91
2023-04-15T12:11:46.225Z,44.82
2023-04-15T12:14:21.676Z,45.65
2023-04-15T12:16:53.950Z,44.14
2023-04-15T12:19:26.002Z,45.83
2023-04-15T12:21:55.449Z,47.27
2023-04-15T12:24:23.970Z,48.02
2023-04-15T12:26:54.071Z,48.28
2023-04-15T12:29:26.229Z,47.83
2023-04-15T12:31:56.857Z,48.70
2023-04-15T12:34:29.926Z,47.80
2023-04-15T12:36:59.003Z,44.55
2023-04-15T12:39:30.501Z,43.70
2023-04-15T12:41:59.338Z,42.11
2023-04-15T12:44:28.022Z,43.10
2023-04-15T12:46:58.807Z,41.57
2023-04-15T12:49:28.091Z,40.57
2023-04-15T12:51:56.900Z,42.02
2023-04-15T12:54:25.014Z,42.56
2023-04-15T12:56:53.069Z,41.93
2023-04-15T12:59:21.623Z,43.64
2023-04-15T13:01:49.868Z,43.06
2023-04-15T13:04:20.659Z,49.28
2023-04-15T13:06:49.506Z,49.50
2023-04-15T13:09:18.504Z,49.52
2023-04-15T13:11:47.142Z,49.77
2023-04-15T13:14:14.969Z,50.34
2023-04-15T13:16:43.847Z,49.96
2023-04-15T13:19:11.976Z,50.08
2023-04-15T13:21:41.324Z,50.28
2023-04-15T13:24:09.756Z,50.84
2023-04-15T13:26:38.241Z,49.94
2023-04-15T13:29:06.862Z,48.47
2023-04-15T13:31:35.553Z,49.48
2023-04-15T13:34:03.934Z,48.83
2023-04-15T13:36:32.365Z,47.95
2023-04-15T13:39:02.590Z,47.97
2023-04-15T13:41:30.649Z,47.65
2023-04-15T13:43:58.822Z,49.19
2023-04-15T13:46:26.860Z,50.93
2023-04-15T13:48:54.814Z,50.22
2023-04-15T13:51:22.702Z,50.88
2023-04-15T13:53:50.609Z,50.28
2023-04-15T13:56:20.033Z,50.11
2023-04-15T13:58:47.836Z,49.11
2023-04-15T14:01:15.728Z,49.10
2023-04-15T14:03:43.768Z,47.47
2023-04-15T14:06:12.283Z,45.83
2023-04-15T14:08:40.617Z,47.29
2023-04-15T14:11:08.676Z,46.44
2023-04-15T14:13:37.811Z,41.77
2023-04-15T14:16:06.617Z,39.45
2023-04-15T14:18:35.099Z,39.10
2023-04-15T14:21:03.774Z,36.75
2023-04-15T14:23:31.860Z,38.69
2023-04-15T14:25:59.753Z,39.00
2023-04-15T14:28:27.708Z,39.37
2023-04-15T14:30:57.166Z,39.17
2023-04-15T14:33:25.146Z,38.78
2023-04-15T14:35:53.004Z,39.04
2023-04-15T14:38:22.682Z,39.81
2023-04-15T14:40:50.669Z,40.85
2023-04-15T14:43:19.220Z,41.55
2023-04-15T14:45:47.050Z,42.28
2023-04-15T14:48:16.328Z,42.75
2023-04-15T14:50:44.165Z,43.08
2023-04-15T14:53:12.360Z,43.98
2023-04-15T14:55:40.196Z,43.71
2023-04-15T14:58:09.501Z,44.17
2023-04-15T15:00:40.508Z,44.91
2023-04-15T15:03:13.063Z,45.22
2023-04-15T15:05:44.106Z,45.78
2023-04-15T15:08:12.980Z,46.29
2023-04-15T15:10:49.221Z,47.38
2023-04-15T15:13:19.099Z,47.36
2023-04-15T15:15:49.757Z,47.79
2023-04-15T15:18:19.389Z,48.49
2023-04-15T15:20:49.604Z,50.62
2023-04-15T15:23:19.212Z,49.42
2023-04-15T15:25:49.302Z,49.38
2023-04-15T15:28:17.752Z,49.89
2023-04-15T15:30:46.327Z,50.55
2023-04-15T15:33:14.836Z,50.95
2023-04-15T15:35:43.273Z,50.97
2023-04-15T15:38:13.710Z,50.81
2023-04-15T15:40:42.018Z,50.97
2023-04-15T15:43:10.953Z,50.84
2023-04-15T15:45:39.453Z,51.21
2023-04-15T15:48:08.154Z,51.29
2023-04-15T15:50:36.689Z,51.78
2023-04-15T15:53:05.093Z,52.01
2023-04-15T15:55:35.168Z,51.28
2023-04-15T15:58:03.577Z,51.19
2023-04-15T16:00:32.127Z,51.74
2023-04-15T16:05:32.432Z,52.01
2023-04-15T16:08:00.773Z,52.04
2023-04-15T16:10:29.357Z,51.71
2023-04-15T16:12:59.068Z,50.96
2023-04-15T16:15:27.813Z,50.43
2023-04-15T16:17:56.153Z,50.31
2023-04-15T16:20:24.322Z,50.77
2023-04-15T16:22:52.984Z,51.40
2023-04-15T16:25:21.526Z,51.09
2023-04-15T16:27:58.902Z,51.80
2023-04-15T16:30:33.199Z,52.31
2023-04-15T16:33:01.110Z,53.60
2023-04-15T16:35:29.100Z,54.81
2023-04-15T16:37:57.570Z,55.63
2023-04-15T16:40:25.474Z,56.63
2023-04-15T16:42:53.787Z,58.60
2023-04-15T16:45:21.613Z,60.78
2023-04-15T16:47:51.097Z,62.19
2023-04-15T16:50:19.545Z,63.73
2023-04-15T16:52:48.442Z,64.57
2023-04-15T16:55:16.976Z,65.68
2023-04-15T16:58:02.185Z,65.15
2023-04-15T17:00:32.303Z,67.13
2023-04-15T17:03:02.038Z,67.58
2023-04-15T17:05:30.669Z,69.39
2023-04-15T17:07:58.860Z,70.51
2023-04-15T17:10:26.977Z,72.00
2023-04-15T17:12:57.296Z,73.61
2023-04-15T17:15:26.015Z,75.41
2023-04-15T17:17:54.276Z,75.72
2023-04-15T17:20:23.981Z,77.63
2023-04-15T17:22:52.250Z,77.45
2023-04-15T17:25:20.147Z,77.81
2023-04-15T17:27:48.058Z,78.06
2023-04-15T17:30:16.132Z,78.94
2023-04-15T17:32:44.943Z,80.46
2023-04-15T17:35:12.794Z,80.61
2023-04-15T17:37:42.043Z,80.93
2023-04-15T17:40:10.804Z,81.99
2023-04-15T17:42:38.671Z,81.93
2023-04-15T17:45:07.589Z,83.13
2023-04-15T17:47:35.816Z,85.21
2023-04-15T17:50:04.200Z,85.89
2023-04-15T17:52:32.014Z,85.65
2023-04-15T17:55:01.230Z,85.90
2023-04-15T17:57:29.097Z,87.95
2023-04-15T17:59:57.004Z,88.71
2023-04-15T18:02:25.100Z,87.36
2023-04-15T18:04:53.189Z,89.00
2023-04-15T18:07:21.172Z,89.28
2023-04-15T18:09:50.689Z,89.32
2023-04-15T18:12:20.031Z,89.65
2023-04-15T18:14:48.049Z,89.67
2023-04-15T18:17:16.182Z,89.95
2023-04-15T18:19:45.885Z,89.60
2023-04-15T18:22:13.738Z,89.32
2023-04-15T18:24:41.554Z,90.29
2023-04-15T18:27:09.378Z,91.58
2023-04-15T18:29:38.838Z,90.92
2023-04-15T18:32:07.129Z,90.88
2023-04-15T18:34:35.533Z,90.83
2023-04-15T18:37:03.805Z,91.34
2023-04-15T18:39:32.215Z,92.23
2023-04-15T18:42:00.263Z,93.52
2023-04-15T18:44:28.400Z,92.82
2023-04-15T18:46:57.568Z,92.57
2023-04-15T18:49:27.168Z,92.94
2023-04-15T18:51:55.740Z,93.26
2023-04-15T18:54:24.452Z,93.60
2023-04-15T18:56:53.058Z,93.72
2023-04-15T18:59:29.635Z,93.20
2023-04-15T19:02:01.361Z,93.24
2023-04-15T19:04:29.998Z,93.16
2023-04-15T19:06:59.095Z,93.56
2023-04-15T19:09:27.509Z,94.26
2023-04-15T19:11:56.862Z,94.36
2023-04-15T19:14:24.992Z,93.60
2023-04-15T19:16:52.933Z,94.30
2023-04-15T19:19:22.267Z,94.79
2023-04-15T19:21:50.549Z,94.01
2023-04-15T19:24:18.813Z,94.48
2023-04-15T19:26:49.272Z,94.72
2023-04-15T19:29:17.893Z,95.08
2023-04-15T19:31:46.697Z,95.15
2023-04-15T19:34:14.751Z,95.35
2023-04-15T19:36:44.251Z,95.90
2023-04-15T19:39:12.730Z,96.17
2023-04-15T19:41:40.632Z,95.68
2023-04-15T19:44:09.099Z,96.34
2023-04-15T19:46:37.298Z,96.31
2023-04-15T19:49:06.325Z,96.70
2023-04-15T19:51:35.141Z,97.54
2023-04-15T19:54:05.340Z,98.25
2023-04-15T19:56:34.468Z,96.87
2023-04-15T19:59:02.630Z,97.01
2023-04-15T20:01:30.674Z,97.23
2023-04-15T20:03:58.914Z,97.40
2023-04-15T20:06:27.754Z,96.91
2023-04-15T20:08:56.069Z,97.53
2023-04-15T20:12:46.283Z,97.90
2023-04-15T20:14:17.735Z,97.54
2023-04-15T20:16:46.027Z,96.77
2023-04-15T20:19:14.080Z,97.87
2023-04-15T20:21:41.906Z,98.22
2023-04-15T20:24:09.940Z,98.08
2023-04-15T20:26:39.237Z,97.83
2023-04-15T20:29:08.238Z,98.26
2023-04-15T20:31:36.978Z,97.88
2023-04-15T20:34:05.204Z,97.61
2023-04-15T20:36:34.082Z,99.20
2023-04-15T20:39:02.831Z,98.75
2023-04-15T20:41:31.545Z,98.27
2023-04-15T20:44:01.872Z,98.81
2023-04-15T20:46:29.997Z,99.11
2023-04-15T20:48:58.000Z,99.40
2023-04-15T20:51:27.729Z,98.65
2023-04-15T20:53:55.672Z,98.69
2023-04-15T20:56:23.989Z,98.86
2023-04-15T20:58:52.326Z,99.11
2023-04-15T21:01:22.123Z,99.88
2023-04-15T21:03:50.304Z,99.51
2023-04-15T21:06:18.450Z,99.30
2023-04-15T21:08:47.194Z,99.87
2023-04-15T21:11:28.449Z,99.92
2023-04-15T21:14:03.692Z,99.42
2023-04-15T21:16:34.056Z,100.00
2023-04-15T21:19:04.145Z,99.73
2023-04-15T21:21:32.786Z,99.21
2023-04-15T21:24:01.330Z,100.00
2023-04-15T21:26:29.290Z,100.00
2023-04-15T21:28:57.409Z,100.00
2023-04-15T21:31:26.028Z,100.00
2023-04-15T21:33:56.702Z,100.00
2023-04-15T21:36:25.056Z,100.00
2023-04-15T21:38:53.631Z,100.00
2023-04-15T21:41:21.528Z,100.00
2023-04-15T21:43:50.344Z,100.00
2023-04-15T21:46:22.892Z,100.00
2023-04-15T21:48:54.243Z,100.00
2023-04-15T21:51:24.375Z,100.00
2023-04-15T21:53:53.116Z,100.00
2023-04-15T21:56:23.132Z,100.00
2023-04-15T21:58:51.673Z,100.00
2023-04-15T22:01:20.408Z,100.00
2023-04-15T22:03:49.222Z,100.00
2023-04-15T22:06:18.095Z,100.00
2023-04-15T22:09:11.358Z,100.00
2023-04-15T22:11:35.791Z,100.00
2023-04-15T22:14:05.492Z,100.00
2023-04-15T22:16:33.676Z,100.00
2023-04-15T22:19:02.830Z,100.00
2023-04-15T22:21:31.973Z,100.00
2023-04-15T22:24:32.195Z,100.00
2023-04-15T22:26:50.210Z,100.00
2023-04-15T22:29:18.534Z,100.00
2023-04-15T22:31:47.088Z,100.00
2023-04-15T22:34:21.351Z,100.00
2023-04-15T22:36:50.826Z,100.00
2023-04-15T22:39:21.467Z,100.00
2023-04-15T22:41:50.917Z,100.00
2023-04-15T22:44:19.662Z,100.00
2023-04-15T22:46:48.147Z,100.00
2023-04-15T22:49:16.949Z,100.00
2023-04-15T22:51:45.128Z,100.00
2023-04-15T22:54:13.510Z,100.00
2023-04-15T22:56:43.281Z,100.00
2023-04-15T22:59:11.896Z,100.00
2023-04-15T23:01:40.480Z,100.00
2023-04-15T23:04:24.850Z,100.00
2023-04-15T23:06:56.883Z,100.00
2023-04-15T23:09:25.162Z,100.00
2023-04-15T23:11:56.519Z,100.00
2023-04-15T23:14:26.209Z,100.00
2023-04-15T23:16:54.759Z,100.00
2023-04-15T23:19:22.740Z,100.00
2023-04-15T23:21:51.033Z,100.00
2023-04-15T23:24:19.300Z,100.00
2023-04-15T23:26:47.646Z,100.00
2023-04-15T23:29:17.236Z,100.00
2023-04-15T23:31:45.186Z,100.00
2023-04-15T23:34:13.045Z,100.00
2023-04-15T23:36:41.135Z,100.00
2023-04-15T23:39:09.231Z,100.00
2023-04-15T23:41:37.596Z,100.00
2023-04-15T23:44:05.734Z,100.00
2023-04-15T23:46:34.994Z,100.00
2023-04-15T23:49:02.872Z,100.00
2023-04-15T23:51:30.688Z,100.00
2023-04-15T23:53:58.583Z,100.00
2023-04-15T23:56:26.353Z,100.00
2023-04-15T23:58:54.124Z,100.00
